09:42
Airports
History
Links
Donate
Help keep this website running!
PayPal
Bitcoin
This page is community maintained. The information is intended for PC simulator navigation or reference.
Always use approved charts for navigation.
EDCO
OBERMEHLER SCHLOTHEIM
OBERMEHLER SCHLOTHEIM (EDCO)
Obermehler, Thüringen, Germany (99996)
(U)
Lat/Lng:51° 16' 3.6" N / 10° 38' 5.4" E
51.267667 / 10.634832
Elevation:909'ft / 277mMSL
ID / ICAO:EDCO
Runways:1
Longest:11-29
Asphalt 1,448m / 4,752ft
Nearby Weather09:20 GMT 2018-02-20
Nearby weather at EDDE, Erfurt located 24.3 nautical miles from EDCO
Altimeter: 30.00
Visibility: 3.1 statute miles
Wind: 3 knots (from 360°)
Temp: -2°c / 28°f
Humidity: 86.1%

METAR: EDDE 200920Z 36003KT 320V030 5000 BR FEW005 SCT021 M02/M04 Q1016 NOSIG

(Powered by phpweather)
Airport Radio Frequencies
Tower: 125.8, 122.9
Nearby VORs <50NM
Nearby NDBs
Runway 11 / 29
Dimensions:1448.4 x 29.9m 4752' x 98'ft
Surface:Asphalt
Runway 11 [A]Runway 29 [B]
Heading:109°TH 289°TH
Lat:
Lng:
51° 16' 11.51"N
10° 37' 30.19"E
51° 15' 55.69"N
10° 38' 40.6"E
User Notes and Comments
51° 16' 3.6" N / 10° 38' 5.4" E
Distance To
Airport ID:
Nearby Airports
(U) EISENACH KINDEL 20.2 NM
EDGE SSW 199°
(C) BAD FRANKENHAUSEN 23.1 NM
EDOF ENE 71°
(C) Erfurt 24.3 NM
EDDE ( WX ) SE 144°
(C) SOEMMERDA-DERMSDORF 24.6 NM
EDBS E 101°
(U) ALLSTEDT 35.5 NM
EDBT ENE 77°
4 Northeim 39.7 NM
EDVN NW 319°
(U) Ballenstedt 41.6 NM
EDCB NE 37°
VFR Chart
Flight Planning at SkyVector.com